createdAt,value
2019-04-25T00:02:24.077Z,12.40
2019-04-25T00:04:53.439Z,12.40
2019-04-25T00:07:22.751Z,12.50
2019-04-25T00:09:55.428Z,12.50
2019-04-25T00:12:25.094Z,12.30
2019-04-25T00:14:56.190Z,12.30
2019-04-25T00:17:26.627Z,12.20
2019-04-25T00:19:55.948Z,12.10
2019-04-25T00:22:42.867Z,12.10
2019-04-25T00:25:33.766Z,12.20
2019-04-25T00:28:03.251Z,12.10
2019-04-25T00:30:33.051Z,12.00
2019-04-25T00:33:14.574Z,12.00
2019-04-25T00:35:44.868Z,12.10
2019-04-25T00:38:15.176Z,12.20
2019-04-25T00:40:44.724Z,12.20
2019-04-25T00:43:14.169Z,12.20
2019-04-25T00:45:44.572Z,12.10
2019-04-25T00:48:14.849Z,11.90
2019-04-25T00:50:44.583Z,11.90
2019-04-25T00:53:13.944Z,11.80
2019-04-25T00:55:44.278Z,11.70
2019-04-25T00:58:18.039Z,11.80
2019-04-25T01:01:05.539Z,11.80
2019-04-25T01:03:36.186Z,11.90
2019-04-25T01:06:06.417Z,11.90
2019-04-25T01:08:35.757Z,11.80
2019-04-25T01:11:05.051Z,11.70
2019-04-25T01:13:34.362Z,11.60
2019-04-25T01:16:04.090Z,11.70
2019-04-25T01:18:33.775Z,11.70
2019-04-25T01:21:04.460Z,11.60
2019-04-25T01:23:34.686Z,11.70
2019-04-25T01:26:04.526Z,11.90
2019-04-25T01:28:35.470Z,11.80
2019-04-25T01:31:06.851Z,11.60
2019-04-25T01:33:36.270Z,11.60
2019-04-25T01:36:07.295Z,11.40
2019-04-25T01:38:47.719Z,11.40
2019-04-25T01:41:34.235Z,11.40
2019-04-25T01:44:05.586Z,11.50
2019-04-25T01:46:37.558Z,11.60
2019-04-25T01:49:06.903Z,11.60
2019-04-25T01:51:36.218Z,11.30
2019-04-25T01:54:05.689Z,11.10
2019-04-25T01:56:35.176Z,11.00
2019-04-25T01:59:04.661Z,11.10
2019-04-25T02:01:35.243Z,11.20
2019-04-25T02:04:04.994Z,11.20
2019-04-25T02:06:34.288Z,11.20
2019-04-25T02:09:06.699Z,11.20
2019-04-25T02:11:45.038Z,11.10
2019-04-25T02:14:14.337Z,11.10
2019-04-25T02:16:44.001Z,11.10
2019-04-25T02:19:14.508Z,11.20
2019-04-25T02:21:44.088Z,11.20
2019-04-25T02:24:13.734Z,11.10
2019-04-25T02:26:43.812Z,11.00
2019-04-25T02:29:14.283Z,10.90
2019-04-25T02:31:45.037Z,11.00
2019-04-25T02:34:15.301Z,11.00
2019-04-25T02:36:47.025Z,11.00
2019-04-25T02:39:18.905Z,11.00
2019-04-25T02:41:48.442Z,11.00
2019-04-25T02:44:17.745Z,10.80
2019-04-25T02:46:56.175Z,10.70
2019-04-25T02:49:36.860Z,10.70
2019-04-25T02:52:08.519Z,10.70
2019-04-25T02:54:38.011Z,10.70
2019-04-25T02:57:08.310Z,10.80
2019-04-25T02:59:38.129Z,10.80
2019-04-25T03:02:09.191Z,10.90
2019-04-25T03:04:38.804Z,10.80
2019-04-25T03:07:11.127Z,10.80
2019-04-25T03:09:39.193Z,10.80
2019-04-25T03:12:09.432Z,10.70
2019-04-25T03:14:39.042Z,10.70
2019-04-25T03:17:09.940Z,10.60
2019-04-25T03:19:54.313Z,10.60
2019-04-25T03:22:26.723Z,10.60
2019-04-25T03:24:56.252Z,10.60
2019-04-25T03:27:25.731Z,10.60
2019-04-25T03:29:55.099Z,10.60
2019-04-25T03:32:27.880Z,10.60
2019-04-25T03:34:56.035Z,10.60
2019-04-25T03:37:25.326Z,10.60
2019-04-25T03:39:54.627Z,10.60
2019-04-25T03:42:24.334Z,10.60
2019-04-25T03:44:53.886Z,10.50
2019-04-25T03:47:23.619Z,10.60
2019-04-25T03:49:55.123Z,10.50
2019-04-25T03:52:24.194Z,10.40
2019-04-25T03:54:53.549Z,10.40
2019-04-25T03:57:23.336Z,10.70
2019-04-25T03:59:53.629Z,10.80
2019-04-25T04:02:23.563Z,10.60
2019-04-25T04:04:53.963Z,10.60
2019-04-25T04:07:23.897Z,10.60
2019-04-25T04:09:55.034Z,10.50
2019-04-25T04:12:24.595Z,10.40
2019-04-25T04:14:53.959Z,10.40
2019-04-25T04:17:24.887Z,10.30
2019-04-25T04:20:03.814Z,10.20
2019-04-25T04:22:37.640Z,10.20
2019-04-25T04:25:09.541Z,10.20
2019-04-25T04:27:38.959Z,10.20
2019-04-25T04:30:08.705Z,10.20
2019-04-25T04:32:50.343Z,10.20
2019-04-25T04:35:19.655Z,10.00
2019-04-25T04:37:48.963Z,10.10
2019-04-25T04:40:18.633Z,10.20
2019-04-25T04:42:48.068Z,10.20
2019-04-25T04:45:18.648Z,10.10
2019-04-25T04:47:47.930Z,10.10
2019-04-25T04:50:17.257Z,10.10
2019-04-25T04:52:46.580Z,10.10
2019-04-25T04:55:17.370Z,9.90
2019-04-25T04:57:46.864Z,10.00
2019-04-25T05:00:16.901Z,9.90
2019-04-25T05:02:47.937Z,10.10
2019-04-25T05:05:30.487Z,10.30
2019-04-25T05:08:01.283Z,10.30
2019-04-25T05:10:30.582Z,10.40
2019-04-25T05:12:59.981Z,10.50
2019-04-25T05:15:29.403Z,10.60
2019-04-25T05:17:58.764Z,10.70
2019-04-25T05:20:28.091Z,10.80
2019-04-25T05:22:57.506Z,10.90
2019-04-25T05:25:26.815Z,11.10
2019-04-25T05:28:02.509Z,11.20
2019-04-25T05:30:28.901Z,11.20
2019-04-25T05:32:58.202Z,11.30
2019-04-25T05:35:27.508Z,11.30
2019-04-25T05:37:56.811Z,11.40
2019-04-25T05:40:26.119Z,11.40
2019-04-25T05:43:00.074Z,11.40
2019-04-25T05:45:31.061Z,11.50
2019-04-25T05:48:00.352Z,11.50
2019-04-25T05:50:29.662Z,11.60
2019-04-25T05:52:58.966Z,11.70
2019-04-25T05:55:28.304Z,11.80
2019-04-25T05:57:57.606Z,11.80
2019-04-25T06:00:27.136Z,12.00
2019-04-25T06:02:56.614Z,12.10
2019-04-25T06:05:27.615Z,12.20
2019-04-25T06:07:57.775Z,12.30
2019-04-25T06:10:28.720Z,12.40
2019-04-25T06:13:13.764Z,12.50
2019-04-25T06:15:45.010Z,12.50
2019-04-25T06:18:17.015Z,12.70
2019-04-25T06:20:46.640Z,12.90
2019-04-25T06:23:20.725Z,13.00
2019-04-25T06:25:50.022Z,13.20
2019-04-25T06:28:24.011Z,13.20
2019-04-25T06:30:54.244Z,13.30
2019-04-25T06:33:24.675Z,13.50
2019-04-25T06:35:54.761Z,13.70
2019-04-25T06:38:27.171Z,13.90
2019-04-25T06:40:56.532Z,14.10
2019-04-25T06:43:26.748Z,14.10
2019-04-25T06:46:14.290Z,14.20
2019-04-25T06:48:45.594Z,14.20
2019-04-25T06:51:15.217Z,14.50
2019-04-25T06:53:44.559Z,14.60
2019-04-25T06:56:13.857Z,14.80
2019-04-25T06:58:43.887Z,15.00
2019-04-25T07:01:13.614Z,15.10
2019-04-25T07:03:44.172Z,14.70
2019-04-25T07:06:14.761Z,14.80
2019-04-25T07:08:44.842Z,15.10
2019-04-25T07:11:14.366Z,15.40
2019-04-25T07:13:43.946Z,15.20
2019-04-25T07:16:13.542Z,15.40
2019-04-25T07:18:43.556Z,15.60
2019-04-25T07:21:14.244Z,15.60
2019-04-25T07:23:46.279Z,15.80
2019-04-25T07:26:16.978Z,15.90
2019-04-25T07:29:06.039Z,16.20
2019-04-25T07:31:40.138Z,16.40
2019-04-25T07:34:11.085Z,16.30
2019-04-25T07:36:40.381Z,16.30
2019-04-25T07:39:10.790Z,16.20
2019-04-25T07:41:40.714Z,16.20
2019-04-25T07:44:10.096Z,16.20
2019-04-25T07:46:40.139Z,16.30
2019-04-25T07:49:09.574Z,16.50
2019-04-25T07:51:38.872Z,16.60
2019-04-25T07:54:08.279Z,16.60
2019-04-25T07:56:37.868Z,16.80
2019-04-25T07:59:07.890Z,16.70
2019-04-25T08:01:37.903Z,16.70
2019-04-25T08:04:08.462Z,16.80
2019-04-25T08:06:37.770Z,16.90
2019-04-25T08:09:10.569Z,17.10
2019-04-25T08:11:40.238Z,17.20
2019-04-25T08:14:14.434Z,17.30
2019-04-25T08:16:45.860Z,17.40
2019-04-25T08:19:15.231Z,17.50
2019-04-25T08:21:45.176Z,17.70
2019-04-25T08:24:15.297Z,17.80
2019-04-25T08:26:44.606Z,17.90
2019-04-25T08:29:13.930Z,18.10
2019-04-25T08:31:44.003Z,18.20
2019-04-25T08:34:14.638Z,18.30
2019-04-25T08:36:45.432Z,18.50
2019-04-25T08:39:15.132Z,18.60
2019-04-25T08:41:45.650Z,18.80
2019-04-25T08:44:15.199Z,19.00
2019-04-25T08:46:48.592Z,19.10
2019-04-25T08:49:23.959Z,19.30
2019-04-25T08:51:55.832Z,19.40
2019-04-25T08:54:31.193Z,19.70
2019-04-25T08:57:04.316Z,19.80
2019-04-25T08:59:53.631Z,20.00
2019-04-25T09:02:24.560Z,20.30
2019-04-25T09:04:58.196Z,20.50
2019-04-25T09:07:27.506Z,20.70
2019-04-25T09:09:56.880Z,20.50
2019-04-25T09:12:26.179Z,20.50
2019-04-25T09:14:55.497Z,20.50
2019-04-25T09:17:24.799Z,20.60
2019-04-25T09:19:54.386Z,20.80
2019-04-25T09:22:24.194Z,20.90
2019-04-25T09:24:54.091Z,21.20
2019-04-25T09:27:24.441Z,21.30
2019-04-25T09:29:54.837Z,21.40
2019-04-25T09:32:24.153Z,21.50
2019-04-25T09:34:54.448Z,21.70
2019-04-25T09:37:24.666Z,21.80
2019-04-25T09:40:01.595Z,22.00
2019-04-25T09:42:33.690Z,22.10
2019-04-25T09:45:05.515Z,22.20
2019-04-25T09:47:35.765Z,22.30
2019-04-25T09:50:07.742Z,22.40
2019-04-25T09:52:37.765Z,22.60
2019-04-25T09:55:25.503Z,22.80
2019-04-25T09:58:05.828Z,22.90
2019-04-25T10:00:46.314Z,22.90
2019-04-25T10:03:15.854Z,23.20
2019-04-25T10:05:45.226Z,23.30
2019-04-25T10:08:14.500Z,23.40
2019-04-25T10:10:44.607Z,23.50
2019-04-25T10:13:13.992Z,23.70
2019-04-25T10:16:03.915Z,23.80
2019-04-25T10:18:34.065Z,23.90
2019-04-25T10:21:05.494Z,24.00
2019-04-25T10:23:35.035Z,24.10
2019-04-25T10:26:05.772Z,24.30
2019-04-25T10:28:35.134Z,24.40
2019-04-25T10:31:04.593Z,24.60
2019-04-25T10:33:34.015Z,24.80
2019-04-25T10:36:04.203Z,24.90
2019-04-25T10:38:35.103Z,25.00
2019-04-25T10:41:04.593Z,25.20
2019-04-25T10:43:34.275Z,25.20
2019-04-25T10:46:05.465Z,25.40
2019-04-25T10:48:35.147Z,25.70
2019-04-25T10:51:04.548Z,25.90
2019-04-25T10:53:34.039Z,26.30
2019-04-25T10:56:05.874Z,26.30
2019-04-25T10:58:35.287Z,26.60
2019-04-25T11:01:05.571Z,26.60
2019-04-25T11:03:54.436Z,26.80
2019-04-25T11:06:25.659Z,27.00
2019-04-25T11:08:56.481Z,27.00
2019-04-25T11:11:26.273Z,27.10
2019-04-25T11:13:57.192Z,27.20
2019-04-25T11:16:26.654Z,26.70
2019-04-25T11:18:56.221Z,26.60
2019-04-25T11:21:25.533Z,26.60
2019-04-25T11:23:55.505Z,27.00
2019-04-25T11:26:25.738Z,27.20
2019-04-25T11:28:55.179Z,27.80
2019-04-25T11:31:26.431Z,27.80
2019-04-25T11:33:55.736Z,27.80
2019-04-25T11:36:25.108Z,28.30
2019-04-25T11:39:13.545Z,28.50
2019-04-25T11:41:45.623Z,28.80
2019-04-25T11:44:14.152Z,28.60
2019-04-25T11:46:45.284Z,28.40
2019-04-25T11:49:15.247Z,28.70
2019-04-25T11:51:45.144Z,28.90
2019-04-25T11:54:15.627Z,28.70
2019-04-25T11:56:46.069Z,29.30
2019-04-25T11:59:16.012Z,29.40
2019-04-25T12:01:46.725Z,29.30
2019-04-25T12:04:16.315Z,29.40
2019-04-25T12:06:47.424Z,29.00
2019-04-25T12:09:17.543Z,28.80
2019-04-25T12:11:48.193Z,29.00
2019-04-25T12:14:17.894Z,29.50
2019-04-25T12:16:50.090Z,29.60
2019-04-25T12:19:18.404Z,29.30
2019-04-25T12:21:48.202Z,29.40
2019-04-25T12:24:17.668Z,29.40
2019-04-25T12:26:47.721Z,29.30
2019-04-25T12:29:17.971Z,29.00
2019-04-25T12:31:47.651Z,28.70
2019-04-25T12:34:17.158Z,28.10
2019-04-25T12:36:47.555Z,27.90
2019-04-25T12:39:17.909Z,27.70
2019-04-25T12:41:49.057Z,27.70
2019-04-25T12:44:31.718Z,27.70
2019-04-25T12:47:13.517Z,28.00
2019-04-25T12:49:43.784Z,27.70
2019-04-25T12:52:13.345Z,28.00
2019-04-25T12:54:44.042Z,28.40
2019-04-25T12:57:14.221Z,29.00
2019-04-25T12:59:45.175Z,29.50
2019-04-25T13:02:15.075Z,29.70
2019-04-25T13:04:44.421Z,29.70
2019-04-25T13:07:13.984Z,29.70
2019-04-25T13:09:43.284Z,30.00
2019-04-25T13:12:14.649Z,30.20
2019-04-25T13:14:44.458Z,30.30
2019-04-25T13:17:13.746Z,30.50
2019-04-25T13:19:44.083Z,30.70
2019-04-25T13:22:13.604Z,30.70
2019-04-25T13:24:42.921Z,30.30
2019-04-25T13:27:19.856Z,30.60
2019-04-25T13:33:03.167Z,30.20
2019-04-25T13:35:41.162Z,30.10
2019-04-25T13:38:11.102Z,30.00
2019-04-25T13:40:40.434Z,29.90
2019-04-25T13:43:09.751Z,29.80
2019-04-25T13:45:39.110Z,29.90
2019-04-25T13:48:09.764Z,29.70
2019-04-25T13:50:39.065Z,29.80
2019-04-25T13:53:08.378Z,29.50
2019-04-25T13:55:37.666Z,29.50
2019-04-25T13:58:08.614Z,29.70
2019-04-25T14:00:38.059Z,30.00
2019-04-25T14:03:07.399Z,29.90
2019-04-25T14:05:37.371Z,29.90
2019-04-25T14:08:06.812Z,29.80
2019-04-25T14:10:36.134Z,30.00
2019-04-25T14:13:06.249Z,30.40
2019-04-25T14:15:37.313Z,30.80
2019-04-25T14:18:14.261Z,31.00
2019-04-25T14:20:47.942Z,30.50
2019-04-25T14:23:17.402Z,30.60
2019-04-25T14:25:46.741Z,30.50
2019-04-25T14:28:16.452Z,30.70
2019-04-25T14:30:45.781Z,30.40
2019-04-25T14:33:15.079Z,30.20
2019-04-25T14:35:44.534Z,30.40
2019-04-25T14:38:13.946Z,30.30
2019-04-25T14:40:43.334Z,29.90
2019-04-25T14:43:32.271Z,29.90
2019-04-25T14:46:01.964Z,29.70
2019-04-25T14:48:31.426Z,29.70
2019-04-25T14:51:00.739Z,30.10
2019-04-25T14:53:30.889Z,30.10
2019-04-25T14:56:02.690Z,30.10
2019-04-25T14:58:33.627Z,29.80
2019-04-25T15:01:03.915Z,29.90
2019-04-25T15:03:33.214Z,30.00
2019-04-25T15:06:02.531Z,29.30
2019-04-25T15:08:32.686Z,29.40
2019-04-25T15:11:02.163Z,29.50
2019-04-25T15:13:31.874Z,29.50
2019-04-25T15:16:01.451Z,28.90
2019-04-25T15:18:31.023Z,28.70
2019-04-25T15:21:00.479Z,28.80
2019-04-25T15:23:29.950Z,29.00
2019-04-25T15:25:59.394Z,29.20
2019-04-25T15:28:29.713Z,29.30
2019-04-25T15:30:59.183Z,29.40
2019-04-25T15:33:28.499Z,29.50
2019-04-25T15:36:05.538Z,29.40
2019-04-25T15:38:42.486Z,29.00
2019-04-25T15:41:16.064Z,29.00
2019-04-25T15:43:47.020Z,28.50
2019-04-25T15:46:21.121Z,28.60
2019-04-25T15:48:50.514Z,28.90
2019-04-25T15:51:19.815Z,29.10
2019-04-25T15:53:50.607Z,29.00
2019-04-25T15:56:20.058Z,28.60
2019-04-25T15:58:49.370Z,28.20
2019-04-25T16:01:18.860Z,28.20
2019-04-25T16:03:48.234Z,28.20
2019-04-25T16:06:17.531Z,27.90
2019-04-25T16:08:47.127Z,28.00
2019-04-25T16:11:16.505Z,27.90
2019-04-25T16:13:45.799Z,28.00
2019-04-25T16:16:15.266Z,28.30
2019-04-25T16:18:44.570Z,28.30
2019-04-25T16:21:14.190Z,28.30
2019-04-25T16:23:43.498Z,27.90
2019-04-25T16:26:12.826Z,27.60
2019-04-25T16:28:43.118Z,27.70
2019-04-25T16:31:14.623Z,28.00
2019-04-25T16:33:43.975Z,27.80
2019-04-25T16:36:13.419Z,27.90
2019-04-25T16:38:42.722Z,27.80
2019-04-25T16:41:12.415Z,27.70
2019-04-25T16:43:43.358Z,27.90
2019-04-25T16:46:12.955Z,28.00
2019-04-25T16:48:42.314Z,28.10
2019-04-25T16:51:11.783Z,28.00
2019-04-25T16:53:41.090Z,28.10
2019-04-25T16:56:10.572Z,28.20
2019-04-25T16:58:40.789Z,28.20
2019-04-25T17:01:12.075Z,28.00
2019-04-25T17:03:41.785Z,27.40
2019-04-25T17:06:11.762Z,27.20
2019-04-25T17:08:41.288Z,27.10
2019-04-25T17:11:10.847Z,26.70
2019-04-25T17:13:42.572Z,26.60
2019-04-25T17:16:45.043Z,26.80
2019-04-25T17:19:18.811Z,27.00
2019-04-25T17:21:48.176Z,27.00
2019-04-25T17:24:17.589Z,27.10
2019-04-25T17:26:47.151Z,27.10
2019-04-25T17:29:18.103Z,27.00
2019-04-25T17:31:57.887Z,26.90
2019-04-25T17:34:45.396Z,26.80
2019-04-25T17:37:16.511Z,26.70
2019-04-25T17:39:56.470Z,26.70
2019-04-25T17:42:25.889Z,26.60
2019-04-25T17:44:55.222Z,26.60
2019-04-25T17:47:24.795Z,26.60
2019-04-25T17:49:54.414Z,26.60
2019-04-25T17:52:23.875Z,26.40
2019-04-25T17:54:53.211Z,26.40
2019-04-25T17:57:22.487Z,26.20
2019-04-25T17:59:51.861Z,25.50
2019-04-25T18:02:21.322Z,25.30
2019-04-25T18:04:50.791Z,25.10
2019-04-25T18:07:20.162Z,24.80
2019-04-25T18:09:49.541Z,24.40
2019-04-25T18:12:20.014Z,24.10
2019-04-25T18:14:49.615Z,24.00
2019-04-25T18:17:19.007Z,23.90
2019-04-25T18:19:50.043Z,23.90
2019-04-25T18:22:27.272Z,23.70
2019-04-25T18:25:01.067Z,23.70
2019-04-25T18:27:42.891Z,23.30
2019-04-25T18:30:12.311Z,23.30
2019-04-25T18:32:43.329Z,23.00
2019-04-25T18:35:20.456Z,22.50
2019-04-25T18:37:54.563Z,22.10
2019-04-25T18:40:37.844Z,22.10
2019-04-25T18:43:17.997Z,21.70
2019-04-25T18:45:54.930Z,21.70
2019-04-25T18:48:24.315Z,21.40
2019-04-25T18:50:53.747Z,21.40
2019-04-25T18:53:27.631Z,21.30
2019-04-25T18:56:14.838Z,21.30
2019-04-25T18:58:46.151Z,21.10
2019-04-25T19:01:17.192Z,21.10
2019-04-25T19:04:04.468Z,21.10
2019-04-25T19:06:33.926Z,21.00
2019-04-25T19:09:03.884Z,20.70
2019-04-25T19:11:35.043Z,20.50
2019-04-25T19:14:04.475Z,20.10
2019-04-25T19:16:33.961Z,20.10
2019-04-25T19:19:03.395Z,19.90
2019-04-25T19:21:33.329Z,19.90
2019-04-25T19:24:13.314Z,19.80
2019-04-25T19:26:43.585Z,19.90
2019-04-25T19:29:14.699Z,19.80
2019-04-25T19:31:44.317Z,19.80
2019-04-25T19:34:13.852Z,19.70
2019-04-25T19:36:43.275Z,19.50
2019-04-25T19:39:14.275Z,19.20
2019-04-25T19:41:47.767Z,19.00
2019-04-25T19:44:28.190Z,18.80
2019-04-25T19:46:57.663Z,18.80
2019-04-25T19:49:27.130Z,18.70
2019-04-25T19:51:56.738Z,18.80
2019-04-25T19:54:26.268Z,19.00
2019-04-25T19:56:56.536Z,18.90
2019-04-25T19:59:27.081Z,18.90
2019-04-25T20:01:58.442Z,19.00
2019-04-25T20:04:29.707Z,18.90
2019-04-25T20:07:09.409Z,18.90
2019-04-25T20:09:53.162Z,18.70
2019-04-25T20:12:24.170Z,18.30
2019-04-25T20:14:53.607Z,18.00
2019-04-25T20:17:23.078Z,18.00
2019-04-25T20:19:52.467Z,18.00
2019-04-25T20:22:21.881Z,18.00
2019-04-25T20:24:52.488Z,17.80
2019-04-25T20:27:22.101Z,17.80
2019-04-25T20:29:52.683Z,18.00
2019-04-25T20:32:23.167Z,18.00
2019-04-25T20:34:53.154Z,18.10
2019-04-25T20:37:22.579Z,18.00
2019-04-25T20:39:51.922Z,18.00
2019-04-25T20:42:21.254Z,18.00
2019-04-25T20:44:51.641Z,18.10
2019-04-25T20:47:21.157Z,18.00
2019-04-25T20:49:50.829Z,18.10
2019-04-25T20:52:20.177Z,18.00
2019-04-25T20:54:49.527Z,18.00
2019-04-25T20:57:18.923Z,18.10
2019-04-25T20:59:49.150Z,18.00
2019-04-25T21:02:18.762Z,18.00
2019-04-25T21:04:48.920Z,18.00
2019-04-25T21:07:18.611Z,18.00
2019-04-25T21:10:00.897Z,18.00
2019-04-25T21:12:30.819Z,17.90
2019-04-25T21:15:01.774Z,17.80
2019-04-25T21:17:49.851Z,17.60
2019-04-25T21:20:20.264Z,17.50
2019-04-25T21:22:50.519Z,17.30
2019-04-25T21:25:20.221Z,17.30
2019-04-25T21:27:50.155Z,17.50
2019-04-25T21:30:19.721Z,17.50
2019-04-25T21:32:53.441Z,17.40
2019-04-25T21:35:24.100Z,17.50
2019-04-25T21:37:53.597Z,17.30
2019-04-25T21:40:27.884Z,17.30
2019-04-25T21:43:11.346Z,17.30
2019-04-25T21:45:40.945Z,17.20
2019-04-25T21:48:10.630Z,17.10
2019-04-25T21:50:41.313Z,16.90
2019-04-25T21:53:10.991Z,16.90
2019-04-25T21:55:40.589Z,16.90
2019-04-25T21:58:10.172Z,17.00
2019-04-25T22:00:48.680Z,16.90
2019-04-25T22:03:21.606Z,16.90
2019-04-25T22:05:51.130Z,16.90
2019-04-25T22:08:21.466Z,16.70
2019-04-25T22:10:50.767Z,16.80
2019-04-25T22:13:20.075Z,16.70
2019-04-25T22:15:49.666Z,16.50
2019-04-25T22:18:19.375Z,16.40
2019-04-25T22:20:48.690Z,16.30
2019-04-25T22:23:18.172Z,16.20
2019-04-25T22:25:48.038Z,16.20
2019-04-25T22:28:18.595Z,16.20
2019-04-25T22:30:50.168Z,16.20
2019-04-25T22:33:39.393Z,16.20
2019-04-25T22:36:13.554Z,16.00
2019-04-25T22:38:42.852Z,15.80
2019-04-25T22:41:12.186Z,15.80
2019-04-25T22:43:43.389Z,15.90
2019-04-25T22:46:25.241Z,15.90
2019-04-25T22:48:50.065Z,15.80
2019-04-25T22:51:19.383Z,15.80
2019-04-25T22:53:48.747Z,15.80
2019-04-25T22:56:18.114Z,15.60
2019-04-25T22:58:47.537Z,15.40
2019-04-25T23:01:18.863Z,15.50
2019-04-25T23:03:49.823Z,15.60
2019-04-25T23:06:19.495Z,15.60
2019-04-25T23:08:48.869Z,15.60
2019-04-25T23:11:18.222Z,15.50
2019-04-25T23:13:47.814Z,15.30
2019-04-25T23:16:17.425Z,15.30
2019-04-25T23:18:46.748Z,15.40
2019-04-25T23:21:16.043Z,15.40
2019-04-25T23:23:45.368Z,15.40
2019-04-25T23:26:19.317Z,15.30
2019-04-25T23:28:48.911Z,15.30
2019-04-25T23:31:19.843Z,15.20
2019-04-25T23:33:49.138Z,14.90
2019-04-25T23:36:18.742Z,14.90
2019-04-25T23:38:48.046Z,14.90
2019-04-25T23:41:17.718Z,14.90
2019-04-25T23:43:47.063Z,14.70
2019-04-25T23:46:16.431Z,14.50
2019-04-25T23:48:45.739Z,14.30
2019-04-25T23:51:15.390Z,14.40
2019-04-25T23:53:45.030Z,14.50
2019-04-25T23:56:15.227Z,14.50
2019-04-25T23:58:44.931Z,14.50
